Rye Brook, New York
Current Conditions -  °F | °C
As of 10:56 PM on Wednesday 26 Nov 2014 (Local Time) from KHPN Reporting Station
Light Snow Light Snow  
Wind Chill: 21°   Ceiling: 1400
Heat Index: 33°   Visibility: 2.5mi
Dew Point: 30°   Wind: 21mph
Humidity: 89%   Direction: 330°NNW
Pressure: 29.78"   Gusts: 29mph
Location:  41.0136°N, 73.6759°W
Report Text: KHPN 270356Z 33018G25KT 2 1/2SM -SN BR OVC014 01/M01 A2978 RMK AO2 PK WND 33027/0342 SLP090 P0001 T00061011
Loading
Personal Weather Stations






























Interactive Weather Map New forecast layout! Learn more

10-Day Weather Forecast

Advertisements
Track Severe Weather on mobile